Granger, TX (76530)

8:55 PM CST on December 17, 2014 (GMT -0600)
KTXGRANG4 | Change Station
CLOSE
Current Station
Personal Weather Station
Location: Granger, TX
Elevation: 594 ft
Nearby Weather Stations

Elev 594 ft 30.74 °N, 97.43 °W | Updated 5 minutes ago

Overcast
Overcast
48.5 °F
Feels Like 48 °F
N
3.0
Wind Variable Wind from NNW
Gusts 7.0 mph

Today
High -- | Low -- °F
--% Chance of Precip.
Yesterday
High -- | Low -- °F
Precip. -- in
7:21 AM 5:30 PM
Waning Crescent, 18% visible
Pressure 30.10 in
Visibility 10.0 miles
Clouds Overcast 1000 ft
Windchill 48 °F
Dew Point 47 °F
Humidity 94%
Rainfall 0.14 in
Snow Depth Not available.
UV 0 out of 12
Pollen 7.00 out of 12
Air Quality Not available.
Flu Activity Not available.
METAR KGTU 180249Z VRB05KT 10SM OVC010 10/08 A3010

More Conditions Fewer Conditions

Pressure 30.10 in
Visibility 10.0 miles
Clouds Overcast 1000 ft
Windchill 48 °F
Dew Point 47 °F
Humidity 94%
Rainfall 0.14 in
Snow Depth Not available.
UV 0 out of 12
Pollen 7.00 out of 12
Air Quality Not available.
Flu Activity Not available.
METAR KGTU 180249Z VRB05KT 10SM OVC010 10/08 A3010

More Conditions Fewer Conditions

Nowcast | as of 6:55 PM CST on December 17, 2014

Through 9 PM...patchy light drizzle and rain will move northeast across south central Texas. Spotty rainfall amounts of a few hundredths of an inch are possible. Patchy fog will continue to develop across the region with visibilities generally 3 to 5 miles. Motorists should exercise caution and slow down in areas of fog as visibilities may drop rapidly. Remember to use the low beam headlights in areas of fog.

×

10-Day Weather Forecast

Almanac

Astronomy

Dec. 17, 2014 Rise Set
Actual Time
Civil Twilight
Nautical Twilight
Astronomical Twilight
Moon
Length of Visible Light
Length of Day
Tomorrow will be .
, % of the Moon is Illuminated

Today's Extremes

State Highs State Lows

Community

WunderPhotos

Upload Photos

1,778,871 photos uploaded!

WunderBlogs® & News

Nearby

Air Quality

  Air Quality AQ Index Pollutant
Not available.

Snow Depth

Station Depth Elevation

Earthquake Activity

City Distance Mag. Time & Date
Minimum magnitude displayed is 2.5.

Coastal Water Temperatures

Place Temperature

Nearby Weather Stations